createdAt,value
2022-09-17T06:28:03.349Z,3.28
2022-09-17T06:30:29.745Z,3.40
2022-09-17T06:32:56.150Z,3.25
2022-09-17T06:35:22.541Z,2.72
2022-09-17T06:37:49.170Z,3.05
2022-09-17T06:40:15.668Z,3.17
2022-09-17T06:42:42.526Z,2.87
2022-09-17T06:45:13.229Z,2.95
2022-09-17T06:47:42.343Z,3.35
2022-09-17T06:50:09.022Z,3.17
2022-09-17T06:52:35.441Z,2.83
2022-09-17T06:55:01.837Z,3.27
2022-09-17T06:57:28.238Z,3.00
2022-09-17T06:59:54.661Z,2.90
2022-09-17T07:02:22.106Z,2.88
2022-09-17T07:04:48.542Z,2.67
2022-09-17T07:07:15.013Z,2.90
2022-09-17T07:09:41.555Z,2.90
2022-09-17T07:12:09.077Z,2.30
2022-09-17T07:14:35.823Z,2.60
2022-09-17T07:17:03.132Z,2.47
2022-09-17T07:19:29.525Z,2.50
2022-09-17T07:21:55.925Z,2.90
2022-09-17T07:24:22.322Z,2.60
2022-09-17T07:26:50.109Z,2.70
2022-09-17T07:29:16.515Z,2.38
2022-09-17T07:31:43.410Z,2.70
2022-09-17T07:34:10.614Z,2.60
2022-09-17T07:36:37.106Z,2.40
2022-09-17T07:39:03.582Z,2.22
2022-09-17T07:41:30.059Z,2.22
2022-09-17T07:43:56.578Z,2.60
2022-09-17T07:46:23.133Z,2.50
2022-09-17T07:48:50.579Z,2.45
2022-09-17T07:51:22.401Z,2.53
2022-09-17T07:53:53.415Z,2.60
2022-09-17T07:56:19.997Z,2.20
2022-09-17T07:58:46.477Z,2.60
2022-09-17T08:01:16.345Z,2.38
2022-09-17T08:03:43.678Z,2.55
2022-09-17T08:06:15.274Z,2.25
2022-09-17T08:08:42.324Z,1.73
2022-09-17T08:11:11.207Z,2.50
2022-09-17T08:13:37.810Z,2.15
2022-09-17T08:16:07.356Z,2.28
2022-09-17T08:18:34.313Z,2.60
2022-09-17T08:21:05.043Z,2.50
2022-09-17T08:23:31.890Z,2.30
2022-09-17T08:26:00.067Z,2.50
2022-09-17T08:28:28.588Z,2.20
2022-09-17T08:30:59.730Z,2.60
2022-09-17T08:33:26.155Z,2.30
2022-09-17T08:35:59.375Z,2.38
2022-09-17T08:38:29.713Z,2.33
2022-09-17T08:41:14.445Z,2.20
2022-09-17T08:43:49.370Z,2.50
2022-09-17T08:46:15.818Z,2.23
2022-09-17T08:48:47.051Z,2.38
2022-09-17T08:51:31.611Z,2.50
2022-09-17T08:54:28.302Z,2.85
2022-09-17T08:57:10.987Z,2.67
2022-09-17T08:59:47.494Z,2.83
2022-09-17T09:02:20.691Z,3.10
2022-09-17T09:05:09.054Z,2.65
2022-09-17T09:07:38.978Z,2.70
2022-09-17T09:10:13.329Z,2.97
2022-09-17T09:12:40.559Z,2.70
